sensor_id;sensor_type;location;lat;lon;timestamp;P1;durP1;ratioP1;P2;durP2;ratioP2
70997;SDS011;58663;52.040;4.634;2023-07-20T00:02:12;16.90;;;11.32;;
70997;SDS011;58663;52.040;4.634;2023-07-20T00:04:38;20.30;;;10.82;;
70997;SDS011;58663;52.040;4.634;2023-07-20T00:07:03;14.60;;;10.63;;
70997;SDS011;58663;52.040;4.634;2023-07-20T00:09:29;17.70;;;11.32;;
70997;SDS011;58663;52.040;4.634;2023-07-20T00:11:55;18.80;;;11.90;;
70997;SDS011;58663;52.040;4.634;2023-07-20T00:14:20;18.17;;;11.57;;
70997;SDS011;58663;52.040;4.634;2023-07-20T00:16:46;20.13;;;12.68;;
70997;SDS011;58663;52.040;4.634;2023-07-20T00:19:12;17.73;;;12.18;;
70997;SDS011;58663;52.040;4.634;2023-07-20T00:21:38;15.10;;;11.25;;
70997;SDS011;58663;52.040;4.634;2023-07-20T00:24:05;20.13;;;12.50;;
70997;SDS011;58663;52.040;4.634;2023-07-20T00:26:30;19.95;;;12.65;;
70997;SDS011;58663;52.040;4.634;2023-07-20T00:28:56;14.95;;;11.50;;
70997;SDS011;58663;52.040;4.634;2023-07-20T00:31:21;14.98;;;10.50;;
70997;SDS011;58663;52.040;4.634;2023-07-20T00:33:47;12.90;;;8.90;;
70997;SDS011;58663;52.040;4.634;2023-07-20T00:36:12;14.07;;;8.43;;
70997;SDS011;58663;52.040;4.634;2023-07-20T00:38:37;12.63;;;7.60;;
70997;SDS011;58663;52.040;4.634;2023-07-20T00:41:03;13.70;;;7.20;;
70997;SDS011;58663;52.040;4.634;2023-07-20T00:43:28;8.48;;;5.35;;
70997;SDS011;58663;52.040;4.634;2023-07-20T00:45:53;10.10;;;4.90;;
70997;SDS011;58663;52.040;4.634;2023-07-20T00:48:19;6.63;;;4.68;;
70997;SDS011;58663;52.040;4.634;2023-07-20T00:50:45;10.38;;;5.22;;
70997;SDS011;58663;52.040;4.634;2023-07-20T00:53:10;6.90;;;4.65;;
70997;SDS011;58663;52.040;4.634;2023-07-20T00:55:36;8.80;;;4.53;;
70997;SDS011;58663;52.040;4.634;2023-07-20T00:58:01;5.65;;;5.00;;
70997;SDS011;58663;52.040;4.634;2023-07-20T01:00:27;7.55;;;4.18;;
70997;SDS011;58663;52.040;4.634;2023-07-20T01:02:52;7.15;;;4.35;;
70997;SDS011;58663;52.040;4.634;2023-07-20T01:05:18;6.60;;;4.30;;
70997;SDS011;58663;52.040;4.634;2023-07-20T01:10:31;6.22;;;4.38;;
70997;SDS011;58663;52.040;4.634;2023-07-20T01:13:01;7.60;;;4.20;;
70997;SDS011;58663;52.040;4.634;2023-07-20T01:15:27;6.18;;;4.47;;
70997;SDS011;58663;52.040;4.634;2023-07-20T01:17:52;6.70;;;4.97;;
70997;SDS011;58663;52.040;4.634;2023-07-20T01:20:18;10.57;;;5.22;;
70997;SDS011;58663;52.040;4.634;2023-07-20T01:23:09;12.48;;;5.43;;
70997;SDS011;58663;52.040;4.634;2023-07-20T01:25:43;6.60;;;4.93;;
70997;SDS011;58663;52.040;4.634;2023-07-20T01:31:18;7.97;;;5.15;;
70997;SDS011;58663;52.040;4.634;2023-07-20T01:33:47;9.18;;;5.38;;
70997;SDS011;58663;52.040;4.634;2023-07-20T01:36:13;6.53;;;5.30;;
70997;SDS011;58663;52.040;4.634;2023-07-20T01:38:39;10.25;;;5.85;;
70997;SDS011;58663;52.040;4.634;2023-07-20T01:41:05;8.38;;;5.15;;
70997;SDS011;58663;52.040;4.634;2023-07-20T01:43:31;9.50;;;5.70;;
70997;SDS011;58663;52.040;4.634;2023-07-20T01:45:56;7.25;;;5.38;;
70997;SDS011;58663;52.040;4.634;2023-07-20T01:48:22;10.35;;;6.20;;
70997;SDS011;58663;52.040;4.634;2023-07-20T01:50:47;9.93;;;6.20;;
70997;SDS011;58663;52.040;4.634;2023-07-20T01:53:13;10.15;;;6.47;;
70997;SDS011;58663;52.040;4.634;2023-07-20T01:55:38;10.35;;;7.63;;
70997;SDS011;58663;52.040;4.634;2023-07-20T01:58:03;11.63;;;6.65;;
70997;SDS011;58663;52.040;4.634;2023-07-20T02:00:29;9.95;;;6.60;;
70997;SDS011;58663;52.040;4.634;2023-07-20T02:02:54;10.55;;;7.03;;
70997;SDS011;58663;52.040;4.634;2023-07-20T02:05:20;11.10;;;7.57;;
70997;SDS011;58663;52.040;4.634;2023-07-20T02:07:45;10.25;;;7.28;;
70997;SDS011;58663;52.040;4.634;2023-07-20T02:10:11;12.25;;;7.57;;
70997;SDS011;58663;52.040;4.634;2023-07-20T02:12:36;13.63;;;7.88;;
70997;SDS011;58663;52.040;4.634;2023-07-20T02:15:02;13.13;;;8.40;;
70997;SDS011;58663;52.040;4.634;2023-07-20T02:17:28;15.02;;;9.00;;
70997;SDS011;58663;52.040;4.634;2023-07-20T02:19:53;11.65;;;8.38;;
70997;SDS011;58663;52.040;4.634;2023-07-20T02:22:19;14.23;;;8.40;;
70997;SDS011;58663;52.040;4.634;2023-07-20T02:24:45;21.48;;;9.77;;
70997;SDS011;58663;52.040;4.634;2023-07-20T02:27:11;12.63;;;9.27;;
70997;SDS011;58663;52.040;4.634;2023-07-20T02:29:36;24.88;;;9.90;;
70997;SDS011;58663;52.040;4.634;2023-07-20T02:32:02;14.02;;;9.20;;
70997;SDS011;58663;52.040;4.634;2023-07-20T02:34:27;16.17;;;10.18;;
70997;SDS011;58663;52.040;4.634;2023-07-20T02:36:53;19.10;;;10.48;;
70997;SDS011;58663;52.040;4.634;2023-07-20T02:39:21;21.95;;;11.85;;
70997;SDS011;58663;52.040;4.634;2023-07-20T02:41:47;19.33;;;11.25;;
70997;SDS011;58663;52.040;4.634;2023-07-20T02:44:13;17.20;;;11.30;;
70997;SDS011;58663;52.040;4.634;2023-07-20T02:46:39;15.75;;;10.02;;
70997;SDS011;58663;52.040;4.634;2023-07-20T02:49:04;20.08;;;10.57;;
70997;SDS011;58663;52.040;4.634;2023-07-20T02:51:29;16.63;;;9.48;;
70997;SDS011;58663;52.040;4.634;2023-07-20T02:53:55;14.25;;;9.70;;
70997;SDS011;58663;52.040;4.634;2023-07-20T02:56:20;14.82;;;10.32;;
70997;SDS011;58663;52.040;4.634;2023-07-20T02:58:45;15.65;;;9.20;;
70997;SDS011;58663;52.040;4.634;2023-07-20T03:01:11;14.90;;;9.77;;
70997;SDS011;58663;52.040;4.634;2023-07-20T03:03:37;15.30;;;9.50;;
70997;SDS011;58663;52.040;4.634;2023-07-20T03:06:04;14.02;;;9.57;;
70997;SDS011;58663;52.040;4.634;2023-07-20T03:08:30;14.88;;;9.27;;
70997;SDS011;58663;52.040;4.634;2023-07-20T03:10:55;13.13;;;9.02;;
70997;SDS011;58663;52.040;4.634;2023-07-20T03:13:20;15.75;;;9.95;;
70997;SDS011;58663;52.040;4.634;2023-07-20T03:15:46;14.00;;;9.55;;
70997;SDS011;58663;52.040;4.634;2023-07-20T03:18:11;15.27;;;8.98;;
70997;SDS011;58663;52.040;4.634;2023-07-20T03:20:37;14.23;;;9.55;;
70997;SDS011;58663;52.040;4.634;2023-07-20T03:23:03;14.52;;;8.57;;
70997;SDS011;58663;52.040;4.634;2023-07-20T03:25:28;11.77;;;8.73;;
70997;SDS011;58663;52.040;4.634;2023-07-20T03:27:54;13.02;;;8.52;;
70997;SDS011;58663;52.040;4.634;2023-07-20T03:30:19;14.88;;;7.95;;
70997;SDS011;58663;52.040;4.634;2023-07-20T03:32:45;13.82;;;7.70;;
70997;SDS011;58663;52.040;4.634;2023-07-20T03:35:10;12.02;;;7.88;;
70997;SDS011;58663;52.040;4.634;2023-07-20T03:37:35;12.57;;;8.85;;
70997;SDS011;58663;52.040;4.634;2023-07-20T03:40:02;13.00;;;7.47;;
70997;SDS011;58663;52.040;4.634;2023-07-20T03:42:28;18.73;;;9.10;;
70997;SDS011;58663;52.040;4.634;2023-07-20T03:44:53;13.80;;;8.18;;
70997;SDS011;58663;52.040;4.634;2023-07-20T03:47:18;16.20;;;8.13;;
70997;SDS011;58663;52.040;4.634;2023-07-20T03:49:44;10.88;;;7.03;;
70997;SDS011;58663;52.040;4.634;2023-07-20T03:52:09;11.88;;;6.90;;
70997;SDS011;58663;52.040;4.634;2023-07-20T03:54:35;11.98;;;7.60;;
70997;SDS011;58663;52.040;4.634;2023-07-20T03:57:00;11.38;;;7.28;;
70997;SDS011;58663;52.040;4.634;2023-07-20T03:59:26;12.05;;;6.88;;
70997;SDS011;58663;52.040;4.634;2023-07-20T04:01:51;10.68;;;7.10;;
70997;SDS011;58663;52.040;4.634;2023-07-20T04:04:16;10.60;;;7.20;;
70997;SDS011;58663;52.040;4.634;2023-07-20T04:06:42;10.98;;;7.40;;
70997;SDS011;58663;52.040;4.634;2023-07-20T04:09:09;11.50;;;7.20;;
70997;SDS011;58663;52.040;4.634;2023-07-20T04:11:36;11.65;;;7.47;;
70997;SDS011;58663;52.040;4.634;2023-07-20T04:14:01;10.35;;;7.22;;
70997;SDS011;58663;52.040;4.634;2023-07-20T04:16:27;9.05;;;6.80;;
70997;SDS011;58663;52.040;4.634;2023-07-20T04:18:54;12.98;;;7.35;;
70997;SDS011;58663;52.040;4.634;2023-07-20T04:21:20;13.63;;;7.25;;
70997;SDS011;58663;52.040;4.634;2023-07-20T04:23:45;12.82;;;7.95;;
70997;SDS011;58663;52.040;4.634;2023-07-20T04:26:11;10.45;;;6.93;;
70997;SDS011;58663;52.040;4.634;2023-07-20T04:28:37;11.80;;;7.07;;
70997;SDS011;58663;52.040;4.634;2023-07-20T04:31:14;11.95;;;6.50;;
70997;SDS011;58663;52.040;4.634;2023-07-20T04:33:40;15.70;;;7.63;;
70997;SDS011;58663;52.040;4.634;2023-07-20T04:36:06;10.85;;;7.00;;
70997;SDS011;58663;52.040;4.634;2023-07-20T04:38:32;10.75;;;6.63;;
70997;SDS011;58663;52.040;4.634;2023-07-20T04:40:57;11.07;;;6.30;;
70997;SDS011;58663;52.040;4.634;2023-07-20T04:43:23;10.05;;;6.88;;
70997;SDS011;58663;52.040;4.634;2023-07-20T04:45:48;8.85;;;6.15;;
70997;SDS011;58663;52.040;4.634;2023-07-20T04:48:15;9.88;;;6.88;;
70997;SDS011;58663;52.040;4.634;2023-07-20T04:50:42;11.90;;;6.70;;
70997;SDS011;58663;52.040;4.634;2023-07-20T04:53:08;9.57;;;6.57;;
70997;SDS011;58663;52.040;4.634;2023-07-20T04:55:35;10.82;;;6.30;;
70997;SDS011;58663;52.040;4.634;2023-07-20T04:58:01;7.10;;;5.30;;
70997;SDS011;58663;52.040;4.634;2023-07-20T05:00:27;8.55;;;5.63;;
70997;SDS011;58663;52.040;4.634;2023-07-20T05:02:53;6.90;;;5.20;;
70997;SDS011;58663;52.040;4.634;2023-07-20T05:05:18;7.18;;;5.15;;
70997;SDS011;58663;52.040;4.634;2023-07-20T05:07:43;5.97;;;4.88;;
70997;SDS011;58663;52.040;4.634;2023-07-20T05:10:09;5.95;;;4.00;;
70997;SDS011;58663;52.040;4.634;2023-07-20T05:12:35;6.40;;;4.30;;
70997;SDS011;58663;52.040;4.634;2023-07-20T05:15:00;6.43;;;4.00;;
70997;SDS011;58663;52.040;4.634;2023-07-20T05:17:25;6.85;;;3.90;;
70997;SDS011;58663;52.040;4.634;2023-07-20T05:19:51;6.90;;;3.80;;
70997;SDS011;58663;52.040;4.634;2023-07-20T05:22:16;9.40;;;3.85;;
70997;SDS011;58663;52.040;4.634;2023-07-20T05:24:42;4.72;;;3.60;;
70997;SDS011;58663;52.040;4.634;2023-07-20T05:27:08;6.75;;;3.78;;
70997;SDS011;58663;52.040;4.634;2023-07-20T05:29:33;10.93;;;4.45;;
70997;SDS011;58663;52.040;4.634;2023-07-20T05:31:58;22.17;;;5.22;;
70997;SDS011;58663;52.040;4.634;2023-07-20T05:34:24;7.57;;;3.88;;
70997;SDS011;58663;52.040;4.634;2023-07-20T05:36:49;12.70;;;4.13;;
70997;SDS011;58663;52.040;4.634;2023-07-20T05:39:16;10.50;;;4.72;;
70997;SDS011;58663;52.040;4.634;2023-07-20T05:41:42;12.65;;;4.72;;
70997;SDS011;58663;52.040;4.634;2023-07-20T05:44:07;13.00;;;5.20;;
70997;SDS011;58663;52.040;4.634;2023-07-20T05:46:33;7.28;;;4.70;;
70997;SDS011;58663;52.040;4.634;2023-07-20T05:48:58;9.18;;;4.47;;
70997;SDS011;58663;52.040;4.634;2023-07-20T05:51:24;8.38;;;4.15;;
70997;SDS011;58663;52.040;4.634;2023-07-20T05:53:49;14.93;;;4.63;;
70997;SDS011;58663;52.040;4.634;2023-07-20T05:56:14;9.00;;;3.95;;
70997;SDS011;58663;52.040;4.634;2023-07-20T05:58:40;11.25;;;3.95;;
70997;SDS011;58663;52.040;4.634;2023-07-20T06:01:05;3.92;;;3.50;;
70997;SDS011;58663;52.040;4.634;2023-07-20T06:03:31;5.40;;;2.30;;
70997;SDS011;58663;52.040;4.634;2023-07-20T06:06:01;3.92;;;2.10;;
70997;SDS011;58663;52.040;4.634;2023-07-20T06:08:28;2.47;;;1.83;;
70997;SDS011;58663;52.040;4.634;2023-07-20T06:10:53;3.28;;;1.80;;
70997;SDS011;58663;52.040;4.634;2023-07-20T06:13:19;7.40;;;2.70;;
70997;SDS011;58663;52.040;4.634;2023-07-20T06:15:44;3.80;;;1.98;;
70997;SDS011;58663;52.040;4.634;2023-07-20T06:18:10;5.10;;;2.00;;
70997;SDS011;58663;52.040;4.634;2023-07-20T06:20:35;5.65;;;1.90;;
70997;SDS011;58663;52.040;4.634;2023-07-20T06:23:00;2.63;;;1.90;;
70997;SDS011;58663;52.040;4.634;2023-07-20T06:25:26;4.32;;;1.90;;
70997;SDS011;58663;52.040;4.634;2023-07-20T06:27:51;4.50;;;2.50;;
70997;SDS011;58663;52.040;4.634;2023-07-20T06:30:17;3.45;;;1.90;;
70997;SDS011;58663;52.040;4.634;2023-07-20T06:32:43;2.13;;;1.92;;
70997;SDS011;58663;52.040;4.634;2023-07-20T06:35:08;3.67;;;2.35;;
70997;SDS011;58663;52.040;4.634;2023-07-20T06:37:34;4.03;;;2.00;;
70997;SDS011;58663;52.040;4.634;2023-07-20T06:40:00;1.95;;;1.60;;
70997;SDS011;58663;52.040;4.634;2023-07-20T06:42:26;5.13;;;2.40;;
70997;SDS011;58663;52.040;4.634;2023-07-20T06:44:51;2.85;;;2.00;;
70997;SDS011;58663;52.040;4.634;2023-07-20T06:47:17;2.58;;;1.77;;
70997;SDS011;58663;52.040;4.634;2023-07-20T06:49:42;3.92;;;1.80;;
70997;SDS011;58663;52.040;4.634;2023-07-20T06:52:08;2.80;;;1.90;;
70997;SDS011;58663;52.040;4.634;2023-07-20T06:54:33;6.13;;;2.08;;
70997;SDS011;58663;52.040;4.634;2023-07-20T06:56:58;2.67;;;2.00;;
70997;SDS011;58663;52.040;4.634;2023-07-20T06:59:24;4.57;;;1.77;;
70997;SDS011;58663;52.040;4.634;2023-07-20T07:01:50;4.35;;;1.80;;
70997;SDS011;58663;52.040;4.634;2023-07-20T07:04:15;3.10;;;1.70;;
70997;SDS011;58663;52.040;4.634;2023-07-20T07:06:40;2.65;;;1.92;;
70997;SDS011;58663;52.040;4.634;2023-07-20T07:09:06;3.78;;;1.98;;
70997;SDS011;58663;52.040;4.634;2023-07-20T07:11:33;3.67;;;2.35;;
70997;SDS011;58663;52.040;4.634;2023-07-20T07:13:58;5.45;;;2.28;;
70997;SDS011;58663;52.040;4.634;2023-07-20T07:16:24;1.70;;;1.60;;
70997;SDS011;58663;52.040;4.634;2023-07-20T07:18:50;4.13;;;1.73;;
70997;SDS011;58663;52.040;4.634;2023-07-20T07:21:16;3.50;;;1.40;;
70997;SDS011;58663;52.040;4.634;2023-07-20T07:23:41;3.33;;;1.60;;
70997;SDS011;58663;52.040;4.634;2023-07-20T07:26:08;3.90;;;1.77;;
70997;SDS011;58663;52.040;4.634;2023-07-20T07:28:33;2.60;;;1.38;;
70997;SDS011;58663;52.040;4.634;2023-07-20T07:30:59;2.03;;;1.67;;
70997;SDS011;58663;52.040;4.634;2023-07-20T07:33:24;3.13;;;1.50;;
70997;SDS011;58663;52.040;4.634;2023-07-20T07:35:50;3.60;;;1.60;;
70997;SDS011;58663;52.040;4.634;2023-07-20T07:38:17;3.05;;;1.40;;
70997;SDS011;58663;52.040;4.634;2023-07-20T07:40:43;3.97;;;1.58;;
70997;SDS011;58663;52.040;4.634;2023-07-20T07:43:08;3.38;;;1.83;;
70997;SDS011;58663;52.040;4.634;2023-07-20T07:45:34;2.58;;;1.40;;
70997;SDS011;58663;52.040;4.634;2023-07-20T07:48:01;2.47;;;1.30;;
70997;SDS011;58663;52.040;4.634;2023-07-20T07:50:27;5.13;;;1.33;;
70997;SDS011;58663;52.040;4.634;2023-07-20T07:52:53;3.88;;;1.52;;
70997;SDS011;58663;52.040;4.634;2023-07-20T07:55:18;2.15;;;1.08;;
70997;SDS011;58663;52.040;4.634;2023-07-20T07:57:43;1.85;;;0.90;;
70997;SDS011;58663;52.040;4.634;2023-07-20T08:00:09;1.23;;;1.08;;
70997;SDS011;58663;52.040;4.634;2023-07-20T08:05:04;1.75;;;1.30;;
70997;SDS011;58663;52.040;4.634;2023-07-20T08:07:30;2.97;;;1.40;;
70997;SDS011;58663;52.040;4.634;2023-07-20T08:09:55;2.15;;;1.83;;
70997;SDS011;58663;52.040;4.634;2023-07-20T08:12:21;2.58;;;1.60;;
70997;SDS011;58663;52.040;4.634;2023-07-20T08:14:46;2.90;;;1.83;;
70997;SDS011;58663;52.040;4.634;2023-07-20T08:17:11;3.63;;;2.05;;
70997;SDS011;58663;52.040;4.634;2023-07-20T08:19:37;5.20;;;2.00;;
70997;SDS011;58663;52.040;4.634;2023-07-20T08:22:06;2.22;;;2.03;;
70997;SDS011;58663;52.040;4.634;2023-07-20T08:24:32;5.82;;;2.10;;
70997;SDS011;58663;52.040;4.634;2023-07-20T08:26:57;3.20;;;2.38;;
70997;SDS011;58663;52.040;4.634;2023-07-20T08:29:23;3.17;;;2.53;;
70997;SDS011;58663;52.040;4.634;2023-07-20T08:31:49;3.22;;;1.90;;
70997;SDS011;58663;52.040;4.634;2023-07-20T08:34:14;2.05;;;1.80;;
70997;SDS011;58663;52.040;4.634;2023-07-20T08:36:40;4.03;;;1.70;;
70997;SDS011;58663;52.040;4.634;2023-07-20T08:39:05;3.90;;;2.00;;
70997;SDS011;58663;52.040;4.634;2023-07-20T08:41:33;6.25;;;1.80;;
70997;SDS011;58663;52.040;4.634;2023-07-20T08:43:59;2.72;;;1.40;;
70997;SDS011;58663;52.040;4.634;2023-07-20T08:46:26;3.63;;;1.10;;
70997;SDS011;58663;52.040;4.634;2023-07-20T08:48:51;3.08;;;1.10;;
70997;SDS011;58663;52.040;4.634;2023-07-20T08:51:17;5.25;;;1.38;;
70997;SDS011;58663;52.040;4.634;2023-07-20T08:53:44;3.15;;;1.20;;
70997;SDS011;58663;52.040;4.634;2023-07-20T08:56:10;1.55;;;1.20;;
70997;SDS011;58663;52.040;4.634;2023-07-20T08:58:36;2.83;;;1.17;;
70997;SDS011;58663;52.040;4.634;2023-07-20T09:01:02;5.00;;;1.23;;
70997;SDS011;58663;52.040;4.634;2023-07-20T09:03:28;3.67;;;1.15;;
70997;SDS011;58663;52.040;4.634;2023-07-20T09:05:53;4.03;;;1.15;;
70997;SDS011;58663;52.040;4.634;2023-07-20T09:08:19;5.95;;;1.60;;
70997;SDS011;58663;52.040;4.634;2023-07-20T09:10:44;2.35;;;1.30;;
70997;SDS011;58663;52.040;4.634;2023-07-20T09:13:13;1.88;;;1.20;;
70997;SDS011;58663;52.040;4.634;2023-07-20T09:15:39;2.72;;;1.20;;
70997;SDS011;58663;52.040;4.634;2023-07-20T09:18:11;2.67;;;1.30;;
70997;SDS011;58663;52.040;4.634;2023-07-20T09:20:36;4.03;;;1.40;;
70997;SDS011;58663;52.040;4.634;2023-07-20T09:23:04;4.43;;;1.50;;
70997;SDS011;58663;52.040;4.634;2023-07-20T09:25:31;2.70;;;1.27;;
70997;SDS011;58663;52.040;4.634;2023-07-20T09:27:56;1.92;;;1.20;;
70997;SDS011;58663;52.040;4.634;2023-07-20T09:30:24;1.30;;;1.20;;
70997;SDS011;58663;52.040;4.634;2023-07-20T09:32:50;2.47;;;1.38;;
70997;SDS011;58663;52.040;4.634;2023-07-20T09:35:24;2.13;;;1.30;;
70997;SDS011;58663;52.040;4.634;2023-07-20T09:40:19;1.20;;;1.10;;
70997;SDS011;58663;52.040;4.634;2023-07-20T09:42:45;1.48;;;1.20;;
70997;SDS011;58663;52.040;4.634;2023-07-20T09:45:11;3.15;;;1.20;;
70997;SDS011;58663;52.040;4.634;2023-07-20T09:47:37;3.35;;;1.70;;
70997;SDS011;58663;52.040;4.634;2023-07-20T09:50:03;3.35;;;1.30;;
70997;SDS011;58663;52.040;4.634;2023-07-20T09:52:29;2.45;;;1.20;;
70997;SDS011;58663;52.040;4.634;2023-07-20T09:54:55;2.75;;;1.20;;
70997;SDS011;58663;52.040;4.634;2023-07-20T09:57:21;1.42;;;1.10;;
70997;SDS011;58663;52.040;4.634;2023-07-20T09:59:46;2.03;;;1.10;;
70997;SDS011;58663;52.040;4.634;2023-07-20T10:02:22;1.95;;;1.17;;
70997;SDS011;58663;52.040;4.634;2023-07-20T10:04:53;4.43;;;1.15;;
70997;SDS011;58663;52.040;4.634;2023-07-20T10:07:19;1.50;;;1.17;;
70997;SDS011;58663;52.040;4.634;2023-07-20T10:09:46;2.42;;;1.30;;
70997;SDS011;58663;52.040;4.634;2023-07-20T10:12:13;5.07;;;1.15;;
70997;SDS011;58663;52.040;4.634;2023-07-20T10:14:41;1.75;;;1.10;;
70997;SDS011;58663;52.040;4.634;2023-07-20T10:17:10;2.90;;;1.20;;
70997;SDS011;58663;52.040;4.634;2023-07-20T10:22:43;1.45;;;0.93;;
70997;SDS011;58663;52.040;4.634;2023-07-20T10:25:01;0.88;;;0.82;;
70997;SDS011;58663;52.040;4.634;2023-07-20T10:27:27;1.85;;;0.90;;
70997;SDS011;58663;52.040;4.634;2023-07-20T10:29:53;3.25;;;0.90;;
70997;SDS011;58663;52.040;4.634;2023-07-20T10:32:20;1.55;;;0.80;;
70997;SDS011;58663;52.040;4.634;2023-07-20T10:34:52;2.40;;;1.05;;
70997;SDS011;58663;52.040;4.634;2023-07-20T10:40:28;0.77;;;0.75;;
70997;SDS011;58663;52.040;4.634;2023-07-20T10:42:59;1.92;;;1.40;;
70997;SDS011;58663;52.040;4.634;2023-07-20T10:48:14;1.77;;;0.90;;
70997;SDS011;58663;52.040;4.634;2023-07-20T10:50:41;1.10;;;0.80;;
70997;SDS011;58663;52.040;4.634;2023-07-20T10:53:13;1.33;;;1.00;;
70997;SDS011;58663;52.040;4.634;2023-07-20T10:55:40;2.92;;;0.80;;
70997;SDS011;58663;52.040;4.634;2023-07-20T10:58:13;2.13;;;0.80;;
70997;SDS011;58663;52.040;4.634;2023-07-20T11:00:56;0.77;;;0.77;;
70997;SDS011;58663;52.040;4.634;2023-07-20T11:03:30;2.97;;;0.82;;
70997;SDS011;58663;52.040;4.634;2023-07-20T11:06:00;1.80;;;0.93;;
70997;SDS011;58663;52.040;4.634;2023-07-20T11:09:04;0.98;;;0.70;;
70997;SDS011;58663;52.040;4.634;2023-07-20T11:11:30;2.22;;;0.80;;
70997;SDS011;58663;52.040;4.634;2023-07-20T11:13:58;1.83;;;0.82;;
70997;SDS011;58663;52.040;4.634;2023-07-20T11:19:03;1.83;;;0.90;;
70997;SDS011;58663;52.040;4.634;2023-07-20T11:21:34;0.95;;;0.88;;
70997;SDS011;58663;52.040;4.634;2023-07-20T11:24:02;3.13;;;0.88;;
70997;SDS011;58663;52.040;4.634;2023-07-20T11:26:29;1.20;;;0.90;;
70997;SDS011;58663;52.040;4.634;2023-07-20T11:29:03;1.13;;;0.75;;
70997;SDS011;58663;52.040;4.634;2023-07-20T11:31:29;2.22;;;0.80;;
70997;SDS011;58663;52.040;4.634;2023-07-20T11:33:54;1.67;;;0.98;;
70997;SDS011;58663;52.040;4.634;2023-07-20T11:36:20;2.50;;;0.93;;
70997;SDS011;58663;52.040;4.634;2023-07-20T11:38:45;2.42;;;0.88;;
70997;SDS011;58663;52.040;4.634;2023-07-20T11:41:11;4.47;;;1.08;;
70997;SDS011;58663;52.040;4.634;2023-07-20T11:43:39;1.30;;;0.98;;
70997;SDS011;58663;52.040;4.634;2023-07-20T11:46:06;1.13;;;1.00;;
70997;SDS011;58663;52.040;4.634;2023-07-20T11:48:31;1.10;;;0.98;;
70997;SDS011;58663;52.040;4.634;2023-07-20T11:50:56;2.00;;;0.90;;
70997;SDS011;58663;52.040;4.634;2023-07-20T11:53:22;1.35;;;0.95;;
70997;SDS011;58663;52.040;4.634;2023-07-20T11:55:49;1.02;;;0.80;;
70997;SDS011;58663;52.040;4.634;2023-07-20T11:58:14;2.83;;;1.20;;
70997;SDS011;58663;52.040;4.634;2023-07-20T12:00:41;1.30;;;1.00;;
70997;SDS011;58663;52.040;4.634;2023-07-20T12:03:09;3.17;;;1.00;;
70997;SDS011;58663;52.040;4.634;2023-07-20T12:05:37;1.23;;;0.70;;
70997;SDS011;58663;52.040;4.634;2023-07-20T12:08:05;1.33;;;0.80;;
70997;SDS011;58663;52.040;4.634;2023-07-20T12:10:31;1.45;;;0.88;;
70997;SDS011;58663;52.040;4.634;2023-07-20T12:13:02;2.33;;;0.90;;
70997;SDS011;58663;52.040;4.634;2023-07-20T12:15:32;1.02;;;0.88;;
70997;SDS011;58663;52.040;4.634;2023-07-20T12:17:58;1.27;;;0.93;;
70997;SDS011;58663;52.040;4.634;2023-07-20T12:23:05;0.87;;;0.83;;
70997;SDS011;58663;52.040;4.634;2023-07-20T12:25:37;1.73;;;0.90;;
70997;SDS011;58663;52.040;4.634;2023-07-20T12:28:04;2.63;;;0.90;;
70997;SDS011;58663;52.040;4.634;2023-07-20T12:30:31;0.80;;;0.80;;
70997;SDS011;58663;52.040;4.634;2023-07-20T12:32:56;3.78;;;0.90;;
70997;SDS011;58663;52.040;4.634;2023-07-20T12:35:22;1.23;;;0.88;;
70997;SDS011;58663;52.040;4.634;2023-07-20T12:37:47;1.08;;;0.90;;
70997;SDS011;58663;52.040;4.634;2023-07-20T12:40:14;1.13;;;0.90;;
70997;SDS011;58663;52.040;4.634;2023-07-20T12:42:39;2.60;;;0.95;;
70997;SDS011;58663;52.040;4.634;2023-07-20T12:45:05;2.17;;;1.15;;
70997;SDS011;58663;52.040;4.634;2023-07-20T12:47:30;3.80;;;1.05;;
70997;SDS011;58663;52.040;4.634;2023-07-20T12:49:56;1.10;;;1.00;;
70997;SDS011;58663;52.040;4.634;2023-07-20T12:52:21;2.08;;;1.08;;
70997;SDS011;58663;52.040;4.634;2023-07-20T12:54:47;1.02;;;0.90;;
70997;SDS011;58663;52.040;4.634;2023-07-20T12:57:12;1.75;;;1.05;;
70997;SDS011;58663;52.040;4.634;2023-07-20T12:59:37;3.20;;;1.17;;
70997;SDS011;58663;52.040;4.634;2023-07-20T13:02:03;1.42;;;0.90;;
70997;SDS011;58663;52.040;4.634;2023-07-20T13:04:28;2.33;;;0.88;;
70997;SDS011;58663;52.040;4.634;2023-07-20T13:06:54;1.20;;;0.80;;
70997;SDS011;58663;52.040;4.634;2023-07-20T13:09:20;2.70;;;0.90;;
70997;SDS011;58663;52.040;4.634;2023-07-20T13:11:46;1.10;;;1.00;;
70997;SDS011;58663;52.040;4.634;2023-07-20T13:14:11;2.63;;;1.05;;
70997;SDS011;58663;52.040;4.634;2023-07-20T13:16:36;2.03;;;0.90;;
70997;SDS011;58663;52.040;4.634;2023-07-20T13:19:02;2.28;;;0.80;;
70997;SDS011;58663;52.040;4.634;2023-07-20T13:21:27;1.15;;;1.00;;
70997;SDS011;58663;52.040;4.634;2023-07-20T13:23:53;3.50;;;1.08;;
70997;SDS011;58663;52.040;4.634;2023-07-20T13:26:18;0.80;;;0.80;;
70997;SDS011;58663;52.040;4.634;2023-07-20T13:28:43;0.80;;;0.80;;
70997;SDS011;58663;52.040;4.634;2023-07-20T13:31:09;7.15;;;0.88;;
70997;SDS011;58663;52.040;4.634;2023-07-20T13:33:35;3.00;;;1.73;;
70997;SDS011;58663;52.040;4.634;2023-07-20T13:36:01;1.75;;;0.75;;
70997;SDS011;58663;52.040;4.634;2023-07-20T13:38:26;0.73;;;0.73;;
70997;SDS011;58663;52.040;4.634;2023-07-20T13:40:52;1.45;;;0.90;;
70997;SDS011;58663;52.040;4.634;2023-07-20T13:43:17;1.08;;;0.70;;
70997;SDS011;58663;52.040;4.634;2023-07-20T13:45:43;1.45;;;0.95;;
70997;SDS011;58663;52.040;4.634;2023-07-20T13:48:08;3.88;;;0.90;;
70997;SDS011;58663;52.040;4.634;2023-07-20T13:50:33;4.15;;;0.80;;
70997;SDS011;58663;52.040;4.634;2023-07-20T13:52:59;2.75;;;0.70;;
70997;SDS011;58663;52.040;4.634;2023-07-20T13:55:24;3.42;;;0.77;;
70997;SDS011;58663;52.040;4.634;2023-07-20T13:57:49;2.50;;;1.05;;
70997;SDS011;58663;52.040;4.634;2023-07-20T14:00:15;1.10;;;0.90;;
70997;SDS011;58663;52.040;4.634;2023-07-20T14:02:41;1.38;;;0.73;;
70997;SDS011;58663;52.040;4.634;2023-07-20T14:05:07;1.63;;;0.80;;
70997;SDS011;58663;52.040;4.634;2023-07-20T14:07:34;1.23;;;0.90;;
70997;SDS011;58663;52.040;4.634;2023-07-20T14:10:00;1.15;;;0.85;;
70997;SDS011;58663;52.040;4.634;2023-07-20T14:12:25;0.80;;;0.80;;
70997;SDS011;58663;52.040;4.634;2023-07-20T14:14:50;2.75;;;0.90;;
70997;SDS011;58663;52.040;4.634;2023-07-20T14:17:16;0.70;;;0.70;;
70997;SDS011;58663;52.040;4.634;2023-07-20T14:19:41;1.33;;;0.80;;
70997;SDS011;58663;52.040;4.634;2023-07-20T14:22:06;2.05;;;0.70;;
70997;SDS011;58663;52.040;4.634;2023-07-20T14:24:32;1.52;;;0.77;;
70997;SDS011;58663;52.040;4.634;2023-07-20T14:26:57;2.00;;;0.73;;
70997;SDS011;58663;52.040;4.634;2023-07-20T14:29:23;1.90;;;0.65;;
70997;SDS011;58663;52.040;4.634;2023-07-20T14:31:48;0.82;;;0.65;;
70997;SDS011;58663;52.040;4.634;2023-07-20T14:34:16;2.05;;;0.70;;
70997;SDS011;58663;52.040;4.634;2023-07-20T14:36:42;1.83;;;0.93;;
70997;SDS011;58663;52.040;4.634;2023-07-20T14:39:08;1.10;;;0.63;;
70997;SDS011;58663;52.040;4.634;2023-07-20T14:41:33;1.38;;;0.60;;
70997;SDS011;58663;52.040;4.634;2023-07-20T14:43:58;1.00;;;0.50;;
70997;SDS011;58663;52.040;4.634;2023-07-20T14:46:24;0.50;;;0.50;;
70997;SDS011;58663;52.040;4.634;2023-07-20T14:48:49;0.60;;;0.60;;
70997;SDS011;58663;52.040;4.634;2023-07-20T14:51:16;0.65;;;0.55;;
70997;SDS011;58663;52.040;4.634;2023-07-20T14:53:42;0.82;;;0.55;;
70997;SDS011;58663;52.040;4.634;2023-07-20T14:56:07;3.10;;;0.52;;
70997;SDS011;58663;52.040;4.634;2023-07-20T14:58:33;1.10;;;0.60;;
70997;SDS011;58663;52.040;4.634;2023-07-20T15:00:58;0.55;;;0.47;;
70997;SDS011;58663;52.040;4.634;2023-07-20T15:03:23;1.77;;;0.93;;